createdAt,value
2022-08-04T00:01:47.242Z,25.30
2022-08-04T00:04:21.252Z,25.30
2022-08-04T00:06:56.623Z,25.20
2022-08-04T00:09:28.503Z,25.10
2022-08-04T00:11:58.021Z,25.10
2022-08-04T00:14:28.848Z,25.20
2022-08-04T00:16:56.282Z,25.20
2022-08-04T00:19:30.367Z,25.10
2022-08-04T00:22:02.770Z,25.10
2022-08-04T00:24:31.301Z,25.00
2022-08-04T00:26:58.500Z,24.90
2022-08-04T00:29:27.630Z,24.90
2022-08-04T00:31:57.856Z,24.90
2022-08-04T00:34:27.605Z,24.80
2022-08-04T00:36:55.836Z,24.70
2022-08-04T00:39:23.855Z,24.60
2022-08-04T00:42:16.699Z,24.60
2022-08-04T00:45:03.360Z,24.60
2022-08-04T00:47:44.553Z,24.60
2022-08-04T00:50:18.665Z,24.50
2022-08-04T00:52:55.681Z,24.40
2022-08-04T00:55:48.280Z,24.50
2022-08-04T00:58:29.291Z,24.40
2022-08-04T01:01:02.433Z,24.50
2022-08-04T01:03:47.738Z,24.50
2022-08-04T01:06:24.661Z,24.60
2022-08-04T01:09:07.148Z,24.50
2022-08-04T01:11:57.579Z,24.50
2022-08-04T01:14:57.973Z,24.50
2022-08-04T01:17:37.641Z,24.60
2022-08-04T01:20:07.736Z,24.60
2022-08-04T01:23:08.571Z,24.50
2022-08-04T01:25:58.695Z,24.60
2022-08-04T01:28:38.905Z,24.60
2022-08-04T01:31:21.917Z,24.60
2022-08-04T01:34:04.166Z,24.60
2022-08-04T01:36:35.701Z,24.60
2022-08-04T01:39:39.171Z,24.60
2022-08-04T01:42:09.727Z,24.50
2022-08-04T01:44:38.596Z,24.40
2022-08-04T01:47:09.170Z,24.40
2022-08-04T01:49:40.639Z,24.40
2022-08-04T01:52:10.228Z,24.40
2022-08-04T01:54:41.207Z,24.50
2022-08-04T01:57:38.879Z,24.50
2022-08-04T01:59:59.679Z,24.40
2022-08-04T02:02:28.231Z,24.30
2022-08-04T02:04:56.124Z,24.20
2022-08-04T02:07:39.476Z,24.20
2022-08-04T02:10:08.506Z,24.10
2022-08-04T02:12:41.155Z,24.00
2022-08-04T02:15:12.890Z,24.00
2022-08-04T02:17:46.533Z,23.90
2022-08-04T02:20:21.197Z,23.90
2022-08-04T02:22:57.957Z,24.00
2022-08-04T02:25:26.870Z,24.00
2022-08-04T02:28:12.902Z,24.10
2022-08-04T02:30:47.161Z,24.10
2022-08-04T02:33:19.909Z,24.20
2022-08-04T02:35:54.247Z,24.20
2022-08-04T02:38:27.649Z,24.20
2022-08-04T02:41:00.296Z,24.20
2022-08-04T02:43:51.496Z,24.20
2022-08-04T02:46:19.401Z,24.10
2022-08-04T02:48:49.979Z,24.00
2022-08-04T02:51:20.201Z,23.90
2022-08-04T02:53:49.609Z,23.90
2022-08-04T02:56:20.205Z,23.90
2022-08-04T02:58:51.777Z,23.90
2022-08-04T03:01:18.980Z,23.90
2022-08-04T03:03:51.668Z,23.90
2022-08-04T03:07:50.155Z,24.00
2022-08-04T03:10:57.070Z,24.00
2022-08-04T03:14:09.637Z,24.00
2022-08-04T03:17:13.736Z,24.00
2022-08-04T03:20:07.504Z,23.70
2022-08-04T03:23:12.111Z,23.50
2022-08-04T03:26:23.104Z,23.40
2022-08-04T03:29:36.118Z,23.30
2022-08-04T03:32:30.761Z,23.40
2022-08-04T03:35:14.676Z,23.30
2022-08-04T03:38:23.583Z,23.20
2022-08-04T03:41:16.725Z,23.10
2022-08-04T03:44:42.055Z,23.20
2022-08-04T03:47:29.633Z,23.20
2022-08-04T03:50:41.298Z,23.30
2022-08-04T03:53:40.396Z,23.40
2022-08-04T03:56:47.053Z,23.50
2022-08-04T03:59:42.080Z,23.60
2022-08-04T04:02:36.839Z,23.50
2022-08-04T04:07:41.995Z,23.40
2022-08-04T04:10:30.440Z,23.40
2022-08-04T04:13:19.637Z,23.50
2022-08-04T04:16:13.507Z,23.50
2022-08-04T04:19:05.410Z,23.60
2022-08-04T04:21:58.429Z,23.70
2022-08-04T04:24:40.860Z,23.70
2022-08-04T04:30:00.874Z,23.80
2022-08-04T04:32:54.138Z,24.00
2022-08-04T04:35:35.527Z,24.10
2022-08-04T04:38:35.213Z,24.10
2022-08-04T04:41:24.909Z,24.30
2022-08-04T04:44:28.727Z,24.40
2022-08-04T04:47:07.320Z,24.50
2022-08-04T04:49:40.761Z,24.80
2022-08-04T04:52:13.689Z,24.90
2022-08-04T04:54:50.066Z,25.00
2022-08-04T04:57:20.216Z,25.10
2022-08-04T05:00:10.204Z,25.40
2022-08-04T05:03:00.138Z,25.80
2022-08-04T05:05:39.316Z,26.50
2022-08-04T05:08:44.947Z,27.40
2022-08-04T05:11:33.938Z,28.20
2022-08-04T05:14:35.131Z,28.90
2022-08-04T05:16:58.432Z,29.10
2022-08-04T05:19:34.077Z,29.40
2022-08-04T05:22:07.647Z,29.70
2022-08-04T05:24:40.996Z,30.10
2022-08-04T05:27:14.369Z,30.80
2022-08-04T05:29:50.133Z,31.60
2022-08-04T05:32:20.107Z,32.00
2022-08-04T05:34:58.109Z,32.40
2022-08-04T05:37:28.388Z,32.60
2022-08-04T05:40:00.824Z,32.50
2022-08-04T05:42:29.124Z,32.30
2022-08-04T05:44:57.165Z,32.30
2022-08-04T05:47:25.080Z,32.20
2022-08-04T05:50:01.682Z,31.90
2022-08-04T05:52:31.738Z,31.80
2022-08-04T05:55:00.570Z,31.80
2022-08-04T05:57:28.408Z,31.80
2022-08-04T05:59:57.523Z,32.30
2022-08-04T06:02:26.492Z,33.10
2022-08-04T06:04:56.380Z,33.40
2022-08-04T06:07:23.698Z,32.80
2022-08-04T06:09:50.949Z,33.00
2022-08-04T06:12:20.990Z,33.20
2022-08-04T06:14:53.013Z,33.30
2022-08-04T06:18:33.550Z,33.20
2022-08-04T06:20:19.504Z,32.80
2022-08-04T06:22:53.913Z,32.80
2022-08-04T06:25:25.557Z,32.70
2022-08-04T06:27:54.859Z,32.60
2022-08-04T06:30:26.352Z,32.30
2022-08-04T06:33:03.550Z,32.20
2022-08-04T06:35:34.422Z,32.10
2022-08-04T06:38:03.006Z,32.00
2022-08-04T06:40:33.620Z,31.90
2022-08-04T06:43:03.118Z,31.80
2022-08-04T06:45:31.142Z,31.70
2022-08-04T06:47:59.997Z,31.70
2022-08-04T06:51:26.465Z,31.60
2022-08-04T06:53:17.176Z,31.50
2022-08-04T06:55:48.029Z,31.60
2022-08-04T06:58:16.586Z,31.60
2022-08-04T07:00:45.728Z,31.60
2022-08-04T07:03:14.803Z,31.60
2022-08-04T07:05:42.408Z,31.70
2022-08-04T07:08:11.890Z,31.70
2022-08-04T07:10:41.194Z,31.70
2022-08-04T07:13:09.818Z,31.80
2022-08-04T07:15:39.040Z,31.80
2022-08-04T07:18:06.439Z,31.90
2022-08-04T07:20:36.313Z,32.00
2022-08-04T07:23:04.330Z,31.90
2022-08-04T07:26:00.210Z,31.60
2022-08-04T07:28:24.517Z,32.20
2022-08-04T07:30:53.590Z,33.20
2022-08-04T07:33:22.089Z,34.60
2022-08-04T07:36:09.878Z,35.30
2022-08-04T07:38:48.338Z,35.50
2022-08-04T07:41:38.495Z,35.50
2022-08-04T07:44:08.367Z,35.80
2022-08-04T07:46:36.002Z,36.40
2022-08-04T07:49:04.207Z,37.20
2022-08-04T07:51:32.168Z,38.20
2022-08-04T07:54:00.397Z,39.00
2022-08-04T07:56:28.446Z,39.30
2022-08-04T07:58:55.844Z,39.40
2022-08-04T08:01:25.090Z,39.50
2022-08-04T08:03:54.067Z,40.10
2022-08-04T08:06:31.228Z,40.70
2022-08-04T08:09:13.126Z,41.40
2022-08-04T08:12:38.831Z,42.80
2022-08-04T08:14:31.679Z,44.10
2022-08-04T08:17:02.760Z,45.00
2022-08-04T08:19:30.550Z,45.80
2022-08-04T08:22:00.599Z,45.10
2022-08-04T08:24:29.677Z,44.50
2022-08-04T08:26:57.501Z,43.60
2022-08-04T08:29:25.904Z,42.60
2022-08-04T08:31:57.794Z,41.80
2022-08-04T08:34:31.035Z,41.20
2022-08-04T08:36:59.785Z,40.60
2022-08-04T08:39:36.137Z,40.40
2022-08-04T08:42:35.469Z,40.40
2022-08-04T08:45:30.302Z,40.20
2022-08-04T08:48:12.360Z,39.60
2022-08-04T08:51:06.666Z,39.20
2022-08-04T08:53:52.183Z,39.10
2022-08-04T08:56:31.843Z,39.30
2022-08-04T08:59:23.459Z,39.30
2022-08-04T09:02:16.872Z,39.20
2022-08-04T09:05:11.911Z,39.00
2022-08-04T09:07:57.473Z,39.20
2022-08-04T09:10:31.845Z,39.60
2022-08-04T09:13:05.141Z,40.10
2022-08-04T09:15:37.558Z,40.30
2022-08-04T09:18:11.459Z,40.60
2022-08-04T09:20:43.871Z,41.10
2022-08-04T09:23:24.067Z,41.20
2022-08-04T09:26:05.975Z,41.40
2022-08-04T09:28:53.946Z,41.40
2022-08-04T09:31:49.062Z,41.20
2022-08-04T09:34:26.803Z,41.30
2022-08-04T09:37:02.270Z,41.80
2022-08-04T09:39:39.493Z,41.90
2022-08-04T09:42:23.189Z,42.30
2022-08-04T09:45:05.902Z,42.80
2022-08-04T09:47:40.736Z,43.70
2022-08-04T09:50:32.449Z,43.50
2022-08-04T09:53:11.068Z,43.00
2022-08-04T09:55:57.909Z,42.50
2022-08-04T09:58:44.040Z,42.30
2022-08-04T10:01:19.903Z,41.90
2022-08-04T10:03:52.275Z,40.80
2022-08-04T10:06:38.071Z,40.50
2022-08-04T10:09:25.495Z,39.90
2022-08-04T10:12:09.347Z,39.40
2022-08-04T10:14:47.987Z,38.40
2022-08-04T10:17:58.060Z,37.70
2022-08-04T10:20:45.693Z,36.80
2022-08-04T10:23:24.245Z,35.90
2022-08-04T10:26:19.144Z,34.90
2022-08-04T10:28:58.230Z,33.90
2022-08-04T10:31:30.170Z,32.90
2022-08-04T10:34:01.801Z,32.20
2022-08-04T10:36:33.095Z,31.30
2022-08-04T10:39:06.731Z,31.00
2022-08-04T10:41:42.545Z,30.50
2022-08-04T10:44:24.614Z,30.30
2022-08-04T10:46:57.423Z,30.00
2022-08-04T10:49:44.959Z,29.60
2022-08-04T10:52:22.079Z,29.20
2022-08-04T10:54:57.773Z,29.20
2022-08-04T10:57:34.890Z,29.00
2022-08-04T11:00:10.556Z,28.80
2022-08-04T11:02:43.478Z,28.50
2022-08-04T11:05:19.563Z,28.50
2022-08-04T11:07:51.567Z,28.50
2022-08-04T11:10:25.167Z,28.50
2022-08-04T11:13:01.858Z,28.50
2022-08-04T11:15:36.459Z,28.30
2022-08-04T11:18:16.396Z,28.20
2022-08-04T11:20:52.424Z,28.10
2022-08-04T11:23:26.764Z,28.10
2022-08-04T11:26:02.256Z,28.30
2022-08-04T11:28:39.089Z,28.50
2022-08-04T11:31:12.596Z,28.70
2022-08-04T11:33:46.704Z,28.80
2022-08-04T11:36:22.584Z,29.00
2022-08-04T11:39:00.317Z,29.10
2022-08-04T11:41:40.956Z,29.20
2022-08-04T11:44:16.648Z,29.40
2022-08-04T11:46:50.573Z,29.70
2022-08-04T11:49:32.316Z,30.10
2022-08-04T11:52:21.766Z,30.90
2022-08-04T11:54:54.705Z,31.90
2022-08-04T11:57:35.246Z,32.40
2022-08-04T12:00:10.303Z,32.70
2022-08-04T12:03:17.440Z,32.80
2022-08-04T12:05:59.948Z,33.00
2022-08-04T12:08:43.856Z,33.60
2022-08-04T12:11:23.677Z,33.90
2022-08-04T12:14:00.771Z,35.00
2022-08-04T12:16:37.084Z,36.20
2022-08-04T12:19:13.741Z,35.80
2022-08-04T12:21:55.808Z,34.90
2022-08-04T12:24:28.496Z,35.70
2022-08-04T12:26:59.552Z,36.20
2022-08-04T12:29:31.257Z,37.00
2022-08-04T12:32:04.569Z,37.30
2022-08-04T12:34:38.643Z,37.80
2022-08-04T12:37:15.966Z,37.60
2022-08-04T12:40:29.188Z,37.80
2022-08-04T12:42:59.266Z,37.20
2022-08-04T12:45:28.700Z,37.30
2022-08-04T12:47:58.923Z,37.60
2022-08-04T12:50:26.826Z,37.80
2022-08-04T12:53:02.081Z,38.00
2022-08-04T12:55:33.425Z,38.30
2022-08-04T12:58:02.862Z,37.40
2022-08-04T13:00:40.542Z,36.60
2022-08-04T13:03:11.156Z,35.50
2022-08-04T13:05:41.087Z,35.20
2022-08-04T13:08:10.952Z,35.30
2022-08-04T13:10:40.847Z,36.10
2022-08-04T13:13:16.776Z,36.90
2022-08-04T13:15:56.506Z,37.60
2022-08-04T13:18:30.165Z,38.00
2022-08-04T13:21:19.502Z,38.30
2022-08-04T13:24:09.989Z,38.30
2022-08-04T13:26:54.925Z,37.90
2022-08-04T13:29:59.430Z,38.10
2022-08-04T13:32:24.448Z,38.00
2022-08-04T13:34:56.288Z,38.70
2022-08-04T13:37:30.636Z,38.30
2022-08-04T13:40:00.043Z,37.90
2022-08-04T13:42:28.409Z,37.80
2022-08-04T13:44:58.485Z,36.90
2022-08-04T13:47:29.719Z,37.60
2022-08-04T13:50:22.556Z,38.20
2022-08-04T13:52:53.045Z,38.50
2022-08-04T13:55:24.601Z,38.80
2022-08-04T13:57:58.793Z,39.10
2022-08-04T14:00:37.581Z,39.30
2022-08-04T14:03:24.000Z,38.90
2022-08-04T14:06:16.415Z,39.20
2022-08-04T14:08:55.466Z,38.50
2022-08-04T14:12:09.340Z,38.00
2022-08-04T14:14:27.035Z,38.00
2022-08-04T14:17:00.535Z,37.90
2022-08-04T14:19:35.896Z,37.10
2022-08-04T14:22:04.114Z,37.30
2022-08-04T14:24:31.452Z,37.40
2022-08-04T14:27:01.190Z,37.50
2022-08-04T14:29:37.844Z,37.50
2022-08-04T14:32:11.738Z,37.30
2022-08-04T14:34:45.238Z,37.20
2022-08-04T14:37:18.323Z,37.10
2022-08-04T14:40:18.200Z,37.20
2022-08-04T14:42:44.449Z,37.50
2022-08-04T14:45:29.600Z,37.90
2022-08-04T14:47:57.615Z,38.20
2022-08-04T14:50:35.182Z,38.70
2022-08-04T14:53:08.202Z,38.90
2022-08-04T14:55:36.481Z,38.20
2022-08-04T14:58:35.570Z,38.30
2022-08-04T15:00:56.426Z,37.60
2022-08-04T15:03:24.701Z,37.90
2022-08-04T15:06:00.357Z,38.30
2022-08-04T15:08:33.597Z,38.20
2022-08-04T15:11:03.330Z,38.40
2022-08-04T15:13:33.582Z,39.00
2022-08-04T15:16:06.350Z,38.40
2022-08-04T15:18:39.468Z,37.60
2022-08-04T15:21:08.271Z,37.20
2022-08-04T15:23:39.487Z,37.00
2022-08-04T15:26:11.473Z,36.40
2022-08-04T15:28:44.921Z,35.90
2022-08-04T15:32:07.813Z,35.60
2022-08-04T15:34:01.767Z,35.30
2022-08-04T15:36:37.875Z,35.10
2022-08-04T15:39:12.596Z,34.80
2022-08-04T15:41:55.004Z,35.10
2022-08-04T15:44:48.815Z,35.60
2022-08-04T15:47:17.084Z,36.00
2022-08-04T15:49:45.439Z,36.20
2022-08-04T15:52:15.867Z,36.10
2022-08-04T15:54:52.357Z,36.10
2022-08-04T15:58:00.894Z,36.40
2022-08-04T16:00:28.685Z,36.30
2022-08-04T16:02:55.973Z,36.10
2022-08-04T16:05:33.760Z,35.70
2022-08-04T16:08:08.385Z,35.60
2022-08-04T16:10:37.211Z,35.70
2022-08-04T16:13:08.472Z,35.40
2022-08-04T16:15:49.611Z,35.40
2022-08-04T16:18:36.688Z,35.00
2022-08-04T16:21:17.793Z,34.90
2022-08-04T16:24:02.253Z,34.80
2022-08-04T16:26:54.902Z,34.40
2022-08-04T16:29:35.869Z,34.70
2022-08-04T16:32:23.433Z,34.80
2022-08-04T16:34:56.879Z,34.60
2022-08-04T16:37:30.850Z,34.80
2022-08-04T16:40:38.834Z,33.70
2022-08-04T16:43:09.053Z,33.40
2022-08-04T16:45:49.355Z,33.50
2022-08-04T16:48:17.641Z,33.30
2022-08-04T16:51:05.352Z,33.10
2022-08-04T16:53:51.554Z,33.10
2022-08-04T16:56:33.746Z,32.80
2022-08-04T16:59:14.547Z,32.60
2022-08-04T17:01:49.197Z,32.20
2022-08-04T17:04:20.004Z,32.70
2022-08-04T17:06:47.444Z,32.50
2022-08-04T17:09:16.260Z,32.60
2022-08-04T17:11:45.854Z,32.30
2022-08-04T17:14:13.817Z,31.90
2022-08-04T17:16:42.819Z,31.30
2022-08-04T17:19:24.096Z,30.00
2022-08-04T17:22:00.643Z,30.10
2022-08-04T17:24:30.377Z,30.30
2022-08-04T17:26:58.996Z,30.70
2022-08-04T17:29:43.050Z,30.80
2022-08-04T17:32:16.575Z,30.80
2022-08-04T17:34:48.541Z,30.60
2022-08-04T17:37:39.470Z,30.40
2022-08-04T17:43:03.075Z,29.90
2022-08-04T17:46:29.569Z,29.70
2022-08-04T17:49:19.812Z,29.20
2022-08-04T17:52:05.354Z,28.80
2022-08-04T17:54:40.317Z,28.60
2022-08-04T17:57:15.587Z,28.40
2022-08-04T17:59:56.667Z,28.20
2022-08-04T18:02:32.361Z,27.30
2022-08-04T18:05:06.049Z,27.10
2022-08-04T18:08:46.278Z,27.40
2022-08-04T18:10:51.978Z,27.20
2022-08-04T18:13:24.772Z,27.50
2022-08-04T18:16:02.587Z,27.90
2022-08-04T18:18:30.162Z,27.40
2022-08-04T18:21:02.658Z,27.70
2022-08-04T18:23:33.116Z,27.80
2022-08-04T18:26:01.713Z,27.80
2022-08-04T18:31:17.427Z,28.20
2022-08-04T18:33:57.184Z,27.90
2022-08-04T18:36:33.708Z,27.50
2022-08-04T18:39:13.619Z,27.70
2022-08-04T18:42:01.648Z,27.60
2022-08-04T18:44:31.919Z,27.70
2022-08-04T18:47:19.467Z,27.60
2022-08-04T18:51:01.666Z,27.50
2022-08-04T18:52:34.376Z,27.60
2022-08-04T18:55:04.539Z,27.50
2022-08-04T18:57:59.706Z,27.50
2022-08-04T19:00:20.128Z,27.20
2022-08-04T19:02:47.685Z,26.80
2022-08-04T19:05:17.580Z,26.90
2022-08-04T19:08:01.815Z,26.70
2022-08-04T19:10:35.086Z,26.30
2022-08-04T19:13:02.240Z,26.00
2022-08-04T19:15:34.071Z,25.90
2022-08-04T19:18:02.123Z,26.10
2022-08-04T19:20:29.903Z,26.10
2022-08-04T19:24:30.583Z,26.10
2022-08-04T19:25:59.150Z,26.20
2022-08-04T19:28:33.962Z,26.30
2022-08-04T19:31:02.733Z,26.30
2022-08-04T19:33:58.246Z,26.40
2022-08-04T19:36:17.589Z,26.70
2022-08-04T19:38:45.420Z,26.10
2022-08-04T19:41:14.590Z,26.00
2022-08-04T19:43:43.891Z,26.00
2022-08-04T19:46:12.081Z,26.00
2022-08-04T19:48:40.012Z,26.20
2022-08-04T19:51:08.361Z,26.00
2022-08-04T19:53:38.191Z,26.00
2022-08-04T19:56:10.455Z,25.70
2022-08-04T19:58:39.908Z,25.60
2022-08-04T20:01:22.836Z,25.30
2022-08-04T20:04:08.479Z,25.50
2022-08-04T20:06:38.199Z,25.60
2022-08-04T20:09:16.941Z,25.70
2022-08-04T20:11:54.018Z,25.50
2022-08-04T20:17:10.823Z,25.40
2022-08-04T20:19:40.998Z,25.40
2022-08-04T20:22:50.587Z,25.30
2022-08-04T20:25:10.859Z,25.30
2022-08-04T20:27:51.671Z,25.30
2022-08-04T20:30:29.211Z,25.10
2022-08-04T20:32:56.810Z,25.30
2022-08-04T20:35:26.764Z,25.60
2022-08-04T20:40:42.409Z,25.50
2022-08-04T20:43:10.232Z,25.70
2022-08-04T20:48:28.035Z,25.70
2022-08-04T20:50:55.392Z,25.90
2022-08-04T20:53:46.922Z,26.00
2022-08-04T20:56:11.920Z,25.90
2022-08-04T20:58:53.261Z,25.90
2022-08-04T21:01:21.784Z,25.80
2022-08-04T21:04:27.101Z,25.70
2022-08-04T21:06:55.684Z,25.60
2022-08-04T21:09:26.534Z,25.30
2022-08-04T21:12:09.526Z,25.20
2022-08-04T21:14:36.727Z,25.00
2022-08-04T21:17:07.113Z,24.70
2022-08-04T21:19:36.627Z,24.40
2022-08-04T21:22:10.543Z,24.20
2022-08-04T21:24:37.929Z,24.20
2022-08-04T21:27:09.646Z,24.20
2022-08-04T21:29:44.972Z,24.40
2022-08-04T21:32:15.639Z,24.30
2022-08-04T21:34:42.882Z,24.10
2022-08-04T21:37:11.346Z,24.10
2022-08-04T21:39:58.835Z,24.00
2022-08-04T21:42:42.297Z,23.80
2022-08-04T21:45:09.959Z,23.40
2022-08-04T21:47:49.168Z,22.70
2022-08-04T21:50:19.988Z,22.80
2022-08-04T21:52:48.385Z,23.30
2022-08-04T21:55:16.636Z,23.60
2022-08-04T21:57:43.903Z,23.40
2022-08-04T22:00:18.468Z,23.50
2022-08-04T22:02:53.406Z,23.40
2022-08-04T22:05:20.700Z,23.00
2022-08-04T22:07:50.832Z,22.70
2022-08-04T22:10:32.105Z,22.90
2022-08-04T22:13:07.024Z,22.60
2022-08-04T22:16:04.324Z,22.60
2022-08-04T22:18:24.450Z,22.20
2022-08-04T22:20:54.887Z,22.20
2022-08-04T22:23:24.256Z,22.20
2022-08-04T22:25:55.678Z,22.10
2022-08-04T22:28:27.098Z,21.90
2022-08-04T22:30:56.240Z,21.90
2022-08-04T22:33:55.465Z,22.20
2022-08-04T22:36:13.451Z,22.60
2022-08-04T22:38:48.618Z,22.70
2022-08-04T22:41:21.524Z,22.70
2022-08-04T22:44:01.383Z,22.90
2022-08-04T22:46:32.822Z,22.80
2022-08-04T22:49:01.964Z,23.20
2022-08-04T22:51:29.552Z,23.00
2022-08-04T22:53:57.214Z,23.10
2022-08-04T22:56:38.320Z,23.10
2022-08-04T22:59:06.980Z,23.20
2022-08-04T23:01:57.878Z,23.00
2022-08-04T23:04:27.066Z,23.30
2022-08-04T23:06:54.771Z,23.10
2022-08-04T23:09:26.828Z,23.10
2022-08-04T23:12:22.165Z,23.40
2022-08-04T23:14:44.681Z,23.40
2022-08-04T23:17:13.737Z,23.50
2022-08-04T23:19:43.064Z,23.80
2022-08-04T23:22:37.073Z,23.60
2022-08-04T23:25:15.908Z,23.60
2022-08-04T23:27:50.362Z,23.60
2022-08-04T23:30:21.751Z,23.70
2022-08-04T23:33:52.381Z,23.70
2022-08-04T23:36:19.555Z,23.40
2022-08-04T23:38:59.568Z,23.30
2022-08-04T23:41:54.790Z,23.10
2022-08-04T23:44:17.498Z,23.50
2022-08-04T23:46:56.448Z,23.40
2022-08-04T23:49:25.197Z,23.30
2022-08-04T23:52:23.339Z,23.10
2022-08-04T23:54:56.702Z,23.10
2022-08-04T23:57:25.296Z,23.30
2022-08-04T23:59:58.674Z,23.30
